createdAt,value
2019-03-02T00:00:43.886Z,95511.87
2019-03-02T00:03:12.723Z,95516.88
2019-03-02T00:05:40.607Z,95518.85
2019-03-02T00:08:08.504Z,95520.47
2019-03-02T00:10:36.417Z,95518.08
2019-03-02T00:13:07.491Z,95530.77
2019-03-02T00:15:32.233Z,95520.52
2019-03-02T00:18:01.148Z,95520.35
2019-03-02T00:20:33.922Z,95523.19
2019-03-02T00:23:02.743Z,95521.06
2019-03-02T00:25:33.860Z,95518.47
2019-03-02T00:27:59.335Z,95525.05
2019-03-02T00:30:26.460Z,95522.66
2019-03-02T00:32:54.392Z,95518.63
2019-03-02T00:35:22.278Z,95524.81
2019-03-02T00:37:50.181Z,95524.88
2019-03-02T00:40:18.408Z,95526.44
2019-03-02T00:42:48.765Z,95527.24
2019-03-02T00:45:15.453Z,95524.56
2019-03-02T00:47:44.111Z,95527.45
2019-03-02T00:50:11.981Z,95529.81
2019-03-02T00:52:39.882Z,95530.09
2019-03-02T00:55:07.775Z,95529.40
2019-03-02T00:57:36.706Z,95524.38
2019-03-02T01:00:11.716Z,95523.62
2019-03-02T01:02:39.658Z,95524.34
2019-03-02T01:05:04.893Z,95520.25
2019-03-02T01:07:32.880Z,95524.39
2019-03-02T01:10:00.853Z,95523.81
2019-03-02T01:12:28.751Z,95530.15
2019-03-02T01:14:56.662Z,95524.22
2019-03-02T01:17:27.028Z,95524.53
2019-03-02T01:19:53.910Z,95519.37
2019-03-02T01:22:21.417Z,95515.24
2019-03-02T01:24:49.300Z,95519.77
2019-03-02T01:27:17.226Z,95514.26
2019-03-02T01:29:45.128Z,95513.98
2019-03-02T01:32:16.169Z,95511.34
2019-03-02T01:34:42.279Z,95513.52
2019-03-02T01:37:09.024Z,95514.05
2019-03-02T01:39:36.828Z,95504.52
2019-03-02T01:42:04.721Z,95508.88
2019-03-02T01:44:32.627Z,95502.86
2019-03-02T01:47:01.518Z,95509.16
2019-03-02T01:49:29.416Z,95502.59
2019-03-02T01:51:59.098Z,95506.63
2019-03-02T01:54:26.339Z,95506.52
2019-03-02T01:56:55.229Z,95503.13
2019-03-02T01:59:25.066Z,95505.02
2019-03-02T02:01:52.960Z,95511.00
2019-03-02T02:04:22.709Z,95512.13
2019-03-02T02:06:53.612Z,95505.30
2019-03-02T02:09:21.510Z,95505.99
2019-03-02T02:11:53.310Z,95510.36
2019-03-02T02:14:18.699Z,95510.47
2019-03-02T02:16:46.212Z,95513.64
2019-03-02T02:19:14.119Z,95507.70
2019-03-02T02:21:42.255Z,95510.99
2019-03-02T02:24:10.183Z,95514.02
2019-03-02T02:26:39.041Z,95505.89
2019-03-02T02:29:08.192Z,95505.19
2019-03-02T02:31:34.823Z,95504.77
2019-03-02T02:34:02.750Z,95498.80
2019-03-02T02:36:30.695Z,95500.36
2019-03-02T02:38:58.637Z,95499.23
2019-03-02T02:41:26.553Z,95494.13
2019-03-02T02:43:59.036Z,95495.36
2019-03-02T02:46:27.210Z,95494.76
2019-03-02T02:48:50.282Z,95493.26
2019-03-02T02:51:18.173Z,95492.88
2019-03-02T02:53:47.112Z,95491.97
2019-03-02T02:56:14.362Z,95489.23
2019-03-02T02:58:42.862Z,95486.38
2019-03-02T03:01:10.781Z,95482.55
2019-03-02T03:03:38.687Z,95488.42
2019-03-02T03:06:07.472Z,95484.80
2019-03-02T03:08:38.270Z,95484.98
2019-03-02T03:11:06.594Z,95473.26
2019-03-02T03:13:35.978Z,95475.95
2019-03-02T03:16:02.871Z,95481.97
2019-03-02T03:18:32.703Z,95488.16
2019-03-02T03:21:00.597Z,95485.68
2019-03-02T03:23:29.521Z,95488.68
2019-03-02T03:25:58.733Z,95487.55
2019-03-02T03:28:30.708Z,95498.84
2019-03-02T03:30:55.165Z,95487.07
2019-03-02T03:33:23.109Z,95491.05
2019-03-02T03:35:56.081Z,95490.08
2019-03-02T03:38:19.909Z,95484.97
2019-03-02T03:40:47.823Z,95486.95
2019-03-02T03:43:15.727Z,95491.85
2019-03-02T03:45:45.547Z,95485.14
2019-03-02T03:48:17.766Z,95493.14
2019-03-02T03:50:41.389Z,95492.39
2019-03-02T03:53:09.333Z,95494.77
2019-03-02T03:55:37.237Z,95490.52
2019-03-02T03:58:05.132Z,95493.16
2019-03-02T04:00:34.265Z,95493.26
2019-03-02T04:03:00.917Z,95489.34
2019-03-02T04:05:28.830Z,95486.44
2019-03-02T04:07:56.719Z,95490.90
2019-03-02T04:10:26.278Z,95487.24
2019-03-02T04:12:52.520Z,95490.84
2019-03-02T04:15:20.468Z,95497.46
2019-03-02T04:17:48.346Z,95488.80
2019-03-02T04:20:20.025Z,95492.08
2019-03-02T04:22:48.838Z,95491.20
2019-03-02T04:25:18.061Z,95495.13
2019-03-02T04:27:53.265Z,95493.96
2019-03-02T04:30:13.578Z,95495.90
2019-03-02T04:32:41.474Z,95489.23
2019-03-02T04:35:10.397Z,95491.31
2019-03-02T04:37:38.300Z,95489.92
2019-03-02T04:40:08.174Z,95491.20
2019-03-02T04:42:36.069Z,95490.94
2019-03-02T04:45:07.255Z,95491.26
2019-03-02T04:47:35.153Z,95492.71
2019-03-02T04:50:03.110Z,95497.92
2019-03-02T04:52:31.003Z,95490.77
2019-03-02T04:54:59.875Z,95494.64
2019-03-02T04:57:29.387Z,95495.61
2019-03-02T04:59:57.625Z,95499.38
2019-03-02T05:02:24.649Z,95498.62
2019-03-02T05:04:52.561Z,95497.02
2019-03-02T05:07:20.468Z,95499.16
2019-03-02T05:09:48.631Z,95497.22
2019-03-02T05:12:16.341Z,95499.97
2019-03-02T05:14:44.230Z,95498.52
2019-03-02T05:17:12.176Z,95506.27
2019-03-02T05:19:40.063Z,95493.45
2019-03-02T05:22:07.984Z,95497.77
2019-03-02T05:24:35.940Z,95501.26
2019-03-02T05:27:04.807Z,95500.77
2019-03-02T05:29:32.720Z,95506.80
2019-03-02T05:32:00.647Z,95510.13
2019-03-02T05:34:28.548Z,95495.86
2019-03-02T05:36:59.665Z,95506.55
2019-03-02T05:39:24.386Z,95513.92
2019-03-02T05:41:53.239Z,95510.75
2019-03-02T05:44:20.204Z,95512.84
2019-03-02T05:46:48.180Z,95510.48
2019-03-02T05:49:18.534Z,95523.33
2019-03-02T05:51:44.130Z,95525.25
2019-03-02T05:54:11.929Z,95523.80
2019-03-02T05:56:39.842Z,95523.27
2019-03-02T05:59:15.227Z,95532.31
2019-03-02T06:01:43.134Z,95531.40
2019-03-02T06:04:18.837Z,95530.54
2019-03-02T06:06:45.759Z,95530.89
2019-03-02T06:09:15.609Z,95534.87
2019-03-02T06:11:43.535Z,95526.55
2019-03-02T06:14:11.454Z,95526.81
2019-03-02T06:16:39.364Z,95525.90
2019-03-02T06:19:07.283Z,95523.00
2019-03-02T06:21:35.314Z,95521.92
2019-03-02T06:24:05.446Z,95526.60
2019-03-02T06:26:31.798Z,95524.94
2019-03-02T06:28:59.153Z,95523.48
2019-03-02T06:31:27.047Z,95524.67
2019-03-02T06:33:54.944Z,95524.50
2019-03-02T06:36:22.891Z,95525.84
2019-03-02T06:38:50.779Z,95531.70
2019-03-02T06:41:18.710Z,95536.00
2019-03-02T06:43:46.609Z,95531.49
2019-03-02T06:46:15.868Z,95526.71
2019-03-02T06:48:45.150Z,95523.16
2019-03-02T06:51:11.246Z,95523.54
2019-03-02T06:53:38.247Z,95524.51
2019-03-02T06:56:06.166Z,95529.34
2019-03-02T06:58:34.069Z,95536.63
2019-03-02T07:01:01.956Z,95537.27
2019-03-02T07:03:29.862Z,95532.49
2019-03-02T07:05:57.872Z,95532.87
2019-03-02T07:08:25.763Z,95535.34
2019-03-02T07:10:54.531Z,95537.44
2019-03-02T07:13:22.476Z,95542.27
2019-03-02T07:15:50.475Z,95540.50
2019-03-02T07:18:20.276Z,95541.20
2019-03-02T07:20:48.174Z,95537.66
2019-03-02T07:23:16.080Z,95538.08
2019-03-02T07:25:44.333Z,95541.84
2019-03-02T07:28:11.869Z,95545.82
2019-03-02T07:30:40.706Z,95545.66
2019-03-02T07:33:08.691Z,95543.99
2019-03-02T07:35:36.593Z,95541.25
2019-03-02T07:38:04.500Z,95540.07
2019-03-02T07:40:32.400Z,95545.88
2019-03-02T07:43:00.286Z,95549.59
2019-03-02T07:45:31.330Z,95545.55
2019-03-02T07:48:00.015Z,95547.33
2019-03-02T07:50:25.918Z,95546.84
2019-03-02T07:52:53.023Z,95541.95
2019-03-02T07:55:22.367Z,95542.11
2019-03-02T07:57:47.749Z,95543.30
2019-03-02T08:00:16.342Z,95539.80
2019-03-02T08:02:44.241Z,95543.83
2019-03-02T08:05:14.664Z,95548.56
2019-03-02T08:07:40.972Z,95544.98
2019-03-02T08:10:09.719Z,95550.34
2019-03-02T08:12:37.828Z,95549.10
2019-03-02T08:15:07.503Z,95547.09
2019-03-02T08:17:35.396Z,95543.05
2019-03-02T08:20:03.312Z,95542.84
2019-03-02T08:22:31.211Z,95548.27
2019-03-02T08:25:00.266Z,95547.41
2019-03-02T08:27:30.823Z,95547.19
2019-03-02T08:29:57.373Z,95545.47
2019-03-02T08:32:23.947Z,95546.16
2019-03-02T08:34:51.852Z,95546.38
2019-03-02T08:37:19.767Z,95543.16
2019-03-02T08:39:47.966Z,95541.05
2019-03-02T08:42:15.597Z,95542.19
2019-03-02T08:44:44.519Z,95535.25
2019-03-02T08:47:12.407Z,95545.09
2019-03-02T08:49:41.832Z,95537.98
2019-03-02T08:52:08.220Z,95540.63
2019-03-02T08:54:36.127Z,95542.66
2019-03-02T08:57:04.115Z,95533.38
2019-03-02T08:59:34.768Z,95531.23
2019-03-02T09:01:59.957Z,95526.16
2019-03-02T09:04:27.878Z,95526.34
2019-03-02T09:06:56.697Z,95524.70
2019-03-02T09:09:26.532Z,95529.65
2019-03-02T09:11:55.837Z,95518.85
2019-03-02T09:14:23.310Z,95515.19
2019-03-02T09:16:51.241Z,95514.98
2019-03-02T09:19:20.860Z,95508.30
2019-03-02T09:21:47.997Z,95507.18
2019-03-02T09:24:16.922Z,95505.66
2019-03-02T09:26:44.807Z,95500.93
2019-03-02T09:29:12.736Z,95497.71
2019-03-02T09:31:40.632Z,95501.94
2019-03-02T09:34:08.523Z,95496.16
2019-03-02T09:36:36.406Z,95499.17
2019-03-02T09:39:04.359Z,95502.52
2019-03-02T09:41:32.241Z,95501.92
2019-03-02T09:44:01.847Z,95500.11
2019-03-02T09:46:28.349Z,95502.17
2019-03-02T09:49:00.531Z,95507.99
2019-03-02T09:51:24.892Z,95507.41
2019-03-02T09:53:52.802Z,95510.11
2019-03-02T09:56:20.696Z,95513.72
2019-03-02T09:58:48.632Z,95513.13
2019-03-02T10:01:16.666Z,95509.31
2019-03-02T10:03:44.582Z,95510.46
2019-03-02T10:06:12.477Z,95508.17
2019-03-02T10:08:42.334Z,95505.38
2019-03-02T10:11:08.274Z,95508.75
2019-03-02T10:13:36.226Z,95504.94
2019-03-02T10:16:05.595Z,95504.73
2019-03-02T10:18:32.214Z,95504.02
2019-03-02T10:21:00.110Z,95505.41
2019-03-02T10:23:28.999Z,95500.44
2019-03-02T10:25:58.155Z,95499.80
2019-03-02T10:28:30.032Z,95499.08
2019-03-02T10:30:54.610Z,95498.34
2019-03-02T10:33:22.496Z,95499.92
2019-03-02T10:35:53.333Z,95493.80
2019-03-02T10:38:18.991Z,95495.61
2019-03-02T10:40:46.310Z,95499.48
2019-03-02T10:43:14.215Z,95496.93
2019-03-02T10:45:42.132Z,95496.67
2019-03-02T10:48:10.021Z,95499.80
2019-03-02T10:50:37.930Z,95498.20
2019-03-02T10:53:05.831Z,95503.28
2019-03-02T10:55:33.707Z,95503.86
2019-03-02T10:58:03.314Z,95497.97
2019-03-02T11:00:31.416Z,95497.91
2019-03-02T11:03:02.815Z,95499.83
2019-03-02T11:05:36.521Z,95497.77
2019-03-02T11:11:05.177Z,95496.05
2019-03-02T11:13:33.114Z,95498.48
2019-03-02T11:16:01.946Z,95497.89
2019-03-02T11:18:34.557Z,95493.61
2019-03-02T11:21:06.311Z,95499.00
2019-03-02T11:23:39.820Z,95498.29
2019-03-02T11:26:13.762Z,95493.66
2019-03-02T11:28:44.145Z,95496.16
2019-03-02T11:31:12.820Z,95498.50
2019-03-02T11:36:36.517Z,95498.28
2019-03-02T11:42:03.412Z,95503.48
2019-03-02T11:44:32.588Z,95498.83
2019-03-02T11:47:00.512Z,95500.08
2019-03-02T11:49:34.755Z,95497.27
2019-03-02T11:52:02.882Z,95495.99
2019-03-02T11:54:29.822Z,95495.93
2019-03-02T11:57:00.691Z,95495.14
2019-03-02T11:59:33.504Z,95491.44
2019-03-02T12:02:01.432Z,95495.00
2019-03-02T12:04:44.220Z,95488.80
2019-03-02T12:10:07.021Z,95483.05
2019-03-02T12:12:37.284Z,95473.14
2019-03-02T12:15:24.834Z,95474.42
2019-03-02T12:20:46.761Z,95465.28
2019-03-02T12:26:32.310Z,95465.21
2019-03-02T12:29:01.170Z,95466.92
2019-03-02T12:31:31.984Z,95465.25
2019-03-02T12:36:55.737Z,95461.18
2019-03-02T12:39:29.256Z,95462.41
2019-03-02T12:48:02.687Z,95458.98
2019-03-02T12:50:34.931Z,95449.89
2019-03-02T12:53:11.769Z,95451.19
2019-03-02T12:55:43.255Z,95464.24
2019-03-02T12:58:13.865Z,95460.05
2019-03-02T13:03:38.684Z,95453.03
2019-03-02T13:06:07.940Z,95455.52
2019-03-02T13:11:38.362Z,95452.88
2019-03-02T13:14:12.926Z,95447.98
2019-03-02T13:16:45.734Z,95440.12
2019-03-02T13:19:16.400Z,95443.05
2019-03-02T13:21:47.986Z,95442.48
2019-03-02T13:27:15.357Z,95443.19
2019-03-02T13:29:49.195Z,95439.23
2019-03-02T13:35:27.352Z,95438.97
2019-03-02T13:37:57.306Z,95443.83
2019-03-02T13:40:35.024Z,95435.34
2019-03-02T13:43:04.665Z,95443.44
2019-03-02T13:45:36.891Z,95445.58
2019-03-02T13:51:08.286Z,95438.86
2019-03-02T13:53:42.114Z,95442.17
2019-03-02T13:56:26.632Z,95432.23
2019-03-02T13:58:55.123Z,95434.52
2019-03-02T14:01:26.744Z,95428.69
2019-03-02T14:03:54.453Z,95422.94
2019-03-02T14:06:28.823Z,95428.50
2019-03-02T14:09:02.163Z,95423.53
2019-03-02T14:11:36.469Z,95422.52
2019-03-02T14:14:08.505Z,95414.07
2019-03-02T14:16:36.334Z,95412.13
2019-03-02T14:19:05.869Z,95419.09
2019-03-02T14:21:34.491Z,95417.97
2019-03-02T14:27:06.426Z,95408.39
2019-03-02T14:29:38.295Z,95411.11
2019-03-02T14:35:11.365Z,95409.12
2019-03-02T14:37:40.130Z,95409.83
2019-03-02T14:40:14.589Z,95405.37
2019-03-02T14:42:44.305Z,95404.69
2019-03-02T14:45:13.123Z,95404.47
2019-03-02T14:50:47.479Z,95403.42
2019-03-02T14:53:15.425Z,95403.30
2019-03-02T14:58:55.901Z,95404.22
2019-03-02T15:01:26.337Z,95405.85
2019-03-02T15:04:08.359Z,95407.11
2019-03-02T15:09:45.615Z,95401.67
2019-03-02T15:12:16.091Z,95393.94
2019-03-02T15:14:44.014Z,95401.98
2019-03-02T15:17:13.188Z,95397.80
2019-03-02T15:19:57.918Z,95400.34
2019-03-02T15:22:26.156Z,95391.80
2019-03-02T15:25:06.769Z,95390.16
2019-03-02T15:27:35.546Z,95387.84
2019-03-02T15:30:09.656Z,95388.66
2019-03-02T15:35:36.677Z,95387.08
2019-03-02T15:38:07.944Z,95392.41
2019-03-02T15:40:37.756Z,95396.14
2019-03-02T15:46:08.548Z,95403.36
2019-03-02T15:48:56.182Z,95399.39
2019-03-02T15:54:24.013Z,95404.30
2019-03-02T15:56:56.278Z,95403.13
2019-03-02T15:59:26.204Z,95399.56
2019-03-02T16:04:53.601Z,95410.20
2019-03-02T16:07:28.278Z,95409.94
2019-03-02T16:10:00.781Z,95407.41
2019-03-02T16:12:30.756Z,95406.30
2019-03-02T16:15:04.658Z,95406.22
2019-03-02T16:17:36.155Z,95408.23
2019-03-02T16:20:06.385Z,95406.66
2019-03-02T16:22:33.212Z,95406.34
2019-03-02T16:25:08.822Z,95405.92
2019-03-02T16:27:38.488Z,95405.49
2019-03-02T16:30:28.104Z,95403.30
2019-03-02T16:32:58.297Z,95406.33
2019-03-02T16:35:39.928Z,95405.57
2019-03-02T16:38:14.387Z,95408.84
2019-03-02T16:40:47.834Z,95409.94
2019-03-02T16:43:18.092Z,95411.75
2019-03-02T16:45:49.674Z,95414.91
2019-03-02T16:48:24.910Z,95414.72
2019-03-02T16:50:54.402Z,95418.20
2019-03-02T16:53:23.269Z,95419.89
2019-03-02T16:55:51.228Z,95422.05
2019-03-02T16:58:23.925Z,95423.36
2019-03-02T17:00:57.422Z,95423.82
2019-03-02T17:03:39.082Z,95416.34
2019-03-02T17:06:17.731Z,95425.44
2019-03-02T17:08:49.538Z,95422.58
2019-03-02T17:11:18.713Z,95424.45
2019-03-02T17:13:53.149Z,95429.42
2019-03-02T17:16:23.210Z,95430.19
2019-03-02T17:18:56.785Z,95434.41
2019-03-02T17:21:28.484Z,95435.63
2019-03-02T17:23:58.228Z,95440.95
2019-03-02T17:26:29.436Z,95441.67
2019-03-02T17:29:00.046Z,95443.48
2019-03-02T17:31:30.894Z,95442.64
2019-03-02T17:36:55.619Z,95447.96
2019-03-02T17:39:30.167Z,95446.53
2019-03-02T17:42:08.936Z,95445.30
2019-03-02T17:44:55.297Z,95441.16
2019-03-02T17:47:26.674Z,95441.00
2019-03-02T17:49:53.765Z,95439.56
2019-03-02T17:52:24.032Z,95444.27
2019-03-02T17:54:54.029Z,95450.20
2019-03-02T17:57:37.840Z,95451.30
2019-03-02T18:00:10.805Z,95449.76
2019-03-02T18:02:45.849Z,95446.13
2019-03-02T18:05:16.341Z,95448.97
2019-03-02T18:07:49.919Z,95449.64
2019-03-02T18:10:20.116Z,95451.91
2019-03-02T18:12:49.007Z,95454.35
2019-03-02T18:15:22.024Z,95455.23
2019-03-02T18:18:00.090Z,95455.37
2019-03-02T18:20:27.999Z,95455.42
2019-03-02T18:22:55.907Z,95453.45
2019-03-02T18:25:23.830Z,95456.02
2019-03-02T18:27:51.753Z,95453.50
2019-03-02T18:30:19.671Z,95452.42
2019-03-02T18:32:47.565Z,95454.95
2019-03-02T18:35:15.506Z,95461.75
2019-03-02T18:37:43.430Z,95464.70
2019-03-02T18:40:11.341Z,95466.07
2019-03-02T18:42:39.256Z,95465.81
2019-03-02T18:45:07.255Z,95467.48
2019-03-02T18:47:35.699Z,95472.05
2019-03-02T18:53:03.838Z,95472.89
2019-03-02T18:55:31.742Z,95469.67
2019-03-02T18:57:59.683Z,95470.70
2019-03-02T19:00:28.563Z,95477.12
2019-03-02T19:02:57.400Z,95477.38
2019-03-02T19:05:30.241Z,95481.39
2019-03-02T19:07:58.133Z,95479.13
2019-03-02T19:10:26.020Z,95483.26
2019-03-02T19:12:53.921Z,95485.12
2019-03-02T19:15:22.155Z,95486.95
2019-03-02T19:17:49.769Z,95483.14
2019-03-02T19:20:17.663Z,95489.13
2019-03-02T19:22:45.594Z,95487.56
2019-03-02T19:25:13.490Z,95486.00
2019-03-02T19:27:41.445Z,95493.95
2019-03-02T19:30:24.215Z,95493.95
2019-03-02T19:32:52.136Z,95494.61
2019-03-02T19:35:20.032Z,95500.69
2019-03-02T19:37:48.932Z,95498.10
2019-03-02T19:40:17.643Z,95508.91
2019-03-02T19:42:45.593Z,95501.94
2019-03-02T19:45:13.443Z,95500.84
2019-03-02T19:47:41.370Z,95508.50
2019-03-02T19:50:18.916Z,95501.25
2019-03-02T19:52:46.815Z,95503.55
2019-03-02T19:55:16.706Z,95506.86
2019-03-02T19:57:44.641Z,95506.62
2019-03-02T20:00:17.106Z,95505.89
2019-03-02T20:02:45.057Z,95506.93
2019-03-02T20:05:16.896Z,95509.98
2019-03-02T20:07:44.797Z,95509.74
2019-03-02T20:10:15.535Z,95522.00
2019-03-02T20:12:43.493Z,95520.58
2019-03-02T20:15:23.803Z,95520.78
2019-03-02T20:17:51.696Z,95525.53
2019-03-02T20:20:19.598Z,95528.73
2019-03-02T20:22:47.486Z,95536.98
2019-03-02T20:25:15.391Z,95538.81
2019-03-02T20:27:43.289Z,95531.55
2019-03-02T20:30:19.637Z,95535.24
2019-03-02T20:32:47.547Z,95525.42
2019-03-02T20:35:23.969Z,95525.19
2019-03-02T20:37:51.897Z,95528.43
2019-03-02T20:40:21.629Z,95530.86
2019-03-02T20:42:49.527Z,95537.16
2019-03-02T20:45:18.301Z,95532.02
2019-03-02T20:47:47.154Z,95540.08
2019-03-02T20:50:16.060Z,95533.63
2019-03-02T20:52:44.003Z,95534.14
2019-03-02T20:55:11.901Z,95536.99
2019-03-02T20:57:39.787Z,95534.73
2019-03-02T21:03:09.264Z,95534.61
2019-03-02T21:05:37.175Z,95534.63
2019-03-02T21:08:05.105Z,95532.28
2019-03-02T21:10:33.973Z,95525.34
2019-03-02T21:13:01.877Z,95536.75
2019-03-02T21:15:31.578Z,95535.61
2019-03-02T21:17:59.464Z,95528.77
2019-03-02T21:20:27.393Z,95518.17
2019-03-02T21:22:55.283Z,95526.69
2019-03-02T21:25:25.116Z,95527.37
2019-03-02T21:27:53.081Z,95526.34
2019-03-02T21:30:20.983Z,95531.94
2019-03-02T21:32:50.959Z,95534.35
2019-03-02T21:35:18.911Z,95533.70
2019-03-02T21:37:47.748Z,95539.47
2019-03-02T21:40:19.157Z,95547.10
2019-03-02T21:42:47.071Z,95535.50
2019-03-02T21:45:17.621Z,95538.62
2019-03-02T21:47:45.524Z,95541.48
2019-03-02T21:50:15.092Z,95545.81
2019-03-02T21:52:42.989Z,95537.23
2019-03-02T21:55:10.924Z,95538.70
2019-03-02T21:57:38.823Z,95542.16
2019-03-02T22:00:26.093Z,95541.64
2019-03-02T22:02:54.042Z,95541.50
2019-03-02T22:05:21.990Z,95539.59
2019-03-02T22:07:50.157Z,95544.22
2019-03-02T22:10:29.067Z,95541.77
2019-03-02T22:12:57.004Z,95547.28
2019-03-02T22:15:24.888Z,95541.60
2019-03-02T22:17:53.692Z,95539.01
2019-03-02T22:20:21.620Z,95540.63
2019-03-02T22:22:49.525Z,95536.86
2019-03-02T22:25:18.369Z,95538.06
2019-03-02T22:27:46.256Z,95534.94
2019-03-02T22:30:14.936Z,95531.64
2019-03-02T22:32:42.858Z,95538.84
2019-03-02T22:35:10.747Z,95534.83
2019-03-02T22:37:38.690Z,95535.09
2019-03-02T22:40:11.109Z,95536.98
2019-03-02T22:42:39.012Z,95537.70
2019-03-02T22:45:07.733Z,95538.17
2019-03-02T22:47:35.633Z,95528.63
2019-03-02T22:50:03.521Z,95528.78
2019-03-02T22:52:31.449Z,95531.91
2019-03-02T22:55:02.759Z,95523.71
2019-03-02T22:57:30.671Z,95525.95
2019-03-02T23:02:57.362Z,95526.78
2019-03-02T23:05:25.882Z,95526.48
2019-03-02T23:07:54.770Z,95536.36
2019-03-02T23:10:22.673Z,95529.23
2019-03-02T23:12:50.592Z,95534.39
2019-03-02T23:15:18.534Z,95533.77
2019-03-02T23:17:46.505Z,95539.27
2019-03-02T23:20:14.827Z,95537.49
2019-03-02T23:22:42.766Z,95536.48
2019-03-02T23:25:12.362Z,95534.77
2019-03-02T23:27:40.259Z,95538.94
2019-03-02T23:30:08.160Z,95538.02
2019-03-02T23:32:36.092Z,95534.13
2019-03-02T23:35:04.875Z,95540.91
2019-03-02T23:37:32.775Z,95541.12
2019-03-02T23:40:00.678Z,95545.05
2019-03-02T23:42:28.577Z,95544.77
2019-03-02T23:44:56.499Z,95544.02
2019-03-02T23:47:24.425Z,95545.53
2019-03-02T23:49:52.418Z,95535.73
2019-03-02T23:52:20.354Z,95532.08
2019-03-02T23:54:48.296Z,95535.22
2019-03-02T23:57:17.180Z,95536.86
2019-03-02T23:59:45.110Z,95526.92
